createdAt,value
2024-02-06T00:00:27.888Z,789.00
2024-02-06T00:01:27.951Z,781.00
2024-02-06T00:02:27.875Z,781.00
2024-02-06T00:03:27.884Z,780.00
2024-02-06T00:04:28.071Z,782.00
2024-02-06T00:05:27.973Z,781.00
2024-02-06T00:06:27.930Z,783.00
2024-02-06T00:08:27.983Z,784.00
2024-02-06T00:09:27.945Z,783.00
2024-02-06T00:10:28.066Z,784.00
2024-02-06T00:11:27.958Z,782.00
2024-02-06T00:12:27.972Z,783.00
2024-02-06T00:13:28.051Z,780.00
2024-02-06T00:14:27.980Z,777.00
2024-02-06T00:15:27.992Z,775.00
2024-02-06T00:16:28.040Z,774.00
2024-02-06T00:17:28.048Z,773.00
2024-02-06T00:18:28.012Z,771.00
2024-02-06T00:19:28.096Z,773.00
2024-02-06T00:20:28.213Z,774.00
2024-02-06T00:21:28.003Z,772.00
2024-02-06T00:22:28.080Z,776.00
2024-02-06T00:23:28.066Z,777.00
2024-02-06T00:24:28.022Z,776.00
2024-02-06T00:25:28.111Z,777.00
2024-02-06T00:26:28.019Z,775.00
2024-02-06T00:27:28.031Z,775.00
2024-02-06T00:28:28.090Z,775.00
2024-02-06T00:29:28.043Z,776.00
2024-02-06T00:30:28.085Z,779.00
2024-02-06T00:31:28.135Z,780.00
2024-02-06T00:32:28.105Z,779.00
2024-02-06T00:33:28.139Z,778.00
2024-02-06T00:34:28.264Z,772.00
2024-02-06T00:35:28.219Z,771.00
2024-02-06T00:36:28.063Z,768.00
2024-02-06T00:37:28.144Z,768.00
2024-02-06T00:38:28.083Z,765.00
2024-02-06T00:39:28.087Z,765.00
2024-02-06T00:40:28.179Z,766.00
2024-02-06T00:41:28.129Z,765.00
2024-02-06T00:42:28.109Z,764.00
2024-02-06T00:43:28.142Z,764.00
2024-02-06T00:44:28.169Z,764.00
2024-02-06T00:45:28.130Z,763.00
2024-02-06T00:46:28.237Z,759.00
2024-02-06T00:47:28.182Z,756.00
2024-02-06T00:48:28.293Z,761.00
2024-02-06T00:49:28.356Z,760.00
2024-02-06T00:50:28.382Z,758.00
2024-02-06T00:51:28.169Z,757.00
2024-02-06T00:52:28.164Z,758.00
2024-02-06T00:53:28.161Z,759.00
2024-02-06T00:54:28.160Z,758.00
2024-02-06T00:55:28.209Z,758.00
2024-02-06T00:56:28.172Z,757.00
2024-02-06T00:57:28.220Z,759.00
2024-02-06T00:58:28.236Z,761.00
2024-02-06T00:59:28.253Z,760.00
2024-02-06T01:00:28.242Z,759.00
2024-02-06T01:01:28.260Z,762.00
2024-02-06T01:02:28.220Z,761.00
2024-02-06T01:03:28.271Z,762.00
2024-02-06T01:04:28.323Z,763.00
2024-02-06T01:05:28.265Z,765.00
2024-02-06T01:06:28.269Z,764.00
2024-02-06T01:07:28.309Z,765.00
2024-02-06T01:08:28.265Z,764.00
2024-02-06T01:09:28.246Z,764.00
2024-02-06T01:10:28.296Z,761.00
2024-02-06T01:11:28.260Z,759.00
2024-02-06T01:12:28.256Z,759.00
2024-02-06T01:13:28.308Z,756.00
2024-02-06T01:14:28.264Z,758.00
2024-02-06T01:15:28.276Z,760.00
2024-02-06T01:16:28.342Z,757.00
2024-02-06T01:17:28.285Z,758.00
2024-02-06T01:18:28.260Z,757.00
2024-02-06T01:19:28.459Z,757.00
2024-02-06T01:20:28.301Z,760.00
2024-02-06T01:21:28.310Z,759.00
2024-02-06T01:22:28.297Z,757.00
2024-02-06T01:23:28.303Z,757.00
2024-02-06T01:24:28.310Z,754.00
2024-02-06T01:25:28.795Z,752.00
2024-02-06T01:26:28.297Z,753.00
2024-02-06T01:27:28.360Z,749.00
2024-02-06T01:28:28.368Z,751.00
2024-02-06T01:29:28.315Z,751.00
2024-02-06T01:30:28.450Z,750.00
2024-02-06T01:31:28.486Z,749.00
2024-02-06T01:32:28.424Z,748.00
2024-02-06T01:33:28.517Z,748.00
2024-02-06T01:34:28.431Z,750.00
2024-02-06T01:35:28.445Z,749.00
2024-02-06T01:36:28.380Z,749.00
2024-02-06T01:37:28.438Z,748.00
2024-02-06T01:38:28.410Z,747.00
2024-02-06T01:39:28.409Z,747.00
2024-02-06T01:40:28.449Z,744.00
2024-02-06T01:41:28.397Z,741.00
2024-02-06T01:42:28.438Z,737.00
2024-02-06T01:43:28.452Z,736.00
2024-02-06T01:44:28.452Z,734.00
2024-02-06T01:45:28.446Z,735.00
2024-02-06T01:46:28.466Z,736.00
2024-02-06T01:47:28.505Z,739.00
2024-02-06T01:48:28.495Z,738.00
2024-02-06T01:49:28.537Z,736.00
2024-02-06T01:50:28.548Z,738.00
2024-02-06T01:51:28.474Z,736.00
2024-02-06T01:52:28.501Z,736.00
2024-02-06T01:53:28.487Z,738.00
2024-02-06T01:54:28.467Z,736.00
2024-02-06T01:55:28.507Z,736.00
2024-02-06T01:56:28.501Z,734.00
2024-02-06T01:57:28.476Z,732.00
2024-02-06T01:58:28.503Z,730.00
2024-02-06T01:59:28.494Z,728.00
2024-02-06T02:00:28.565Z,728.00
2024-02-06T02:01:28.717Z,730.00
2024-02-06T02:02:28.537Z,729.00
2024-02-06T02:03:28.596Z,731.00
2024-02-06T02:04:28.634Z,734.00
2024-02-06T02:05:28.769Z,733.00
2024-02-06T02:06:28.624Z,736.00
2024-02-06T02:07:28.590Z,734.00
2024-02-06T02:08:28.566Z,734.00
2024-02-06T02:09:28.559Z,733.00
2024-02-06T02:10:28.638Z,731.00
2024-02-06T02:11:28.585Z,729.00
2024-02-06T02:12:28.599Z,730.00
2024-02-06T02:13:28.628Z,729.00
2024-02-06T02:14:28.596Z,728.00
2024-02-06T02:15:28.591Z,727.00
2024-02-06T02:16:28.627Z,729.00
2024-02-06T02:17:28.666Z,727.00
2024-02-06T02:18:28.734Z,724.00
2024-02-06T02:19:28.878Z,725.00
2024-02-06T02:20:28.675Z,723.00
2024-02-06T02:21:28.683Z,722.00
2024-02-06T02:22:28.683Z,722.00
2024-02-06T02:23:29.975Z,718.00
2024-02-06T02:24:28.680Z,717.00
2024-02-06T02:25:28.723Z,713.00
2024-02-06T02:26:28.702Z,710.00
2024-02-06T02:27:28.712Z,708.00
2024-02-06T02:28:28.798Z,709.00
2024-02-06T02:29:28.745Z,709.00
2024-02-06T02:30:28.767Z,704.00
2024-02-06T02:31:28.771Z,704.00
2024-02-06T02:32:28.863Z,706.00
2024-02-06T02:33:28.801Z,707.00
2024-02-06T02:34:28.908Z,707.00
2024-02-06T02:35:28.783Z,708.00
2024-02-06T02:36:28.817Z,709.00
2024-02-06T02:37:28.831Z,708.00
2024-02-06T02:38:28.865Z,708.00
2024-02-06T02:39:28.847Z,709.00
2024-02-06T02:40:28.901Z,711.00
2024-02-06T02:41:28.839Z,712.00
2024-02-06T02:42:28.875Z,710.00
2024-02-06T02:43:28.918Z,709.00
2024-02-06T02:44:28.880Z,707.00
2024-02-06T02:45:28.866Z,706.00
2024-02-06T02:46:28.967Z,704.00
2024-02-06T02:47:28.953Z,705.00
2024-02-06T02:48:28.968Z,706.00
2024-02-06T02:49:29.016Z,708.00
2024-02-06T02:50:28.940Z,707.00
2024-02-06T02:51:28.944Z,703.00
2024-02-06T02:52:29.018Z,706.00
2024-02-06T02:53:28.988Z,705.00
2024-02-06T02:54:28.956Z,705.00
2024-02-06T02:55:29.050Z,707.00
2024-02-06T02:56:29.006Z,709.00
2024-02-06T02:57:29.052Z,707.00
2024-02-06T02:58:29.032Z,706.00
2024-02-06T02:59:29.088Z,704.00
2024-02-06T03:00:29.078Z,704.00
2024-02-06T03:01:29.203Z,706.00
2024-02-06T03:02:29.117Z,708.00
2024-02-06T03:03:29.135Z,710.00
2024-02-06T03:04:29.231Z,711.00
2024-02-06T03:05:29.207Z,709.00
2024-02-06T03:06:29.237Z,707.00
2024-02-06T03:07:29.172Z,707.00
2024-02-06T03:08:29.153Z,704.00
2024-02-06T03:09:29.203Z,703.00
2024-02-06T03:10:29.313Z,704.00
2024-02-06T03:11:29.194Z,704.00
2024-02-06T03:12:29.228Z,701.00
2024-02-06T03:13:29.232Z,701.00
2024-02-06T03:14:29.236Z,701.00
2024-02-06T03:15:29.265Z,700.00
2024-02-06T03:16:29.325Z,699.00
2024-02-06T03:17:29.315Z,699.00
2024-02-06T03:18:29.346Z,696.00
2024-02-06T03:19:29.425Z,698.00
2024-02-06T03:20:29.346Z,698.00
2024-02-06T03:21:29.341Z,699.00
2024-02-06T03:22:29.387Z,698.00
2024-02-06T03:23:29.353Z,700.00
2024-02-06T03:24:29.385Z,696.00
2024-02-06T03:25:29.425Z,695.00
2024-02-06T03:26:29.424Z,694.00
2024-02-06T03:27:29.492Z,694.00
2024-02-06T03:28:29.500Z,692.00
2024-02-06T03:29:29.477Z,690.00
2024-02-06T03:30:29.493Z,692.00
2024-02-06T03:31:29.557Z,692.00
2024-02-06T03:32:29.510Z,690.00
2024-02-06T03:33:29.632Z,687.00
2024-02-06T03:34:29.606Z,687.00
2024-02-06T03:35:29.594Z,685.00
2024-02-06T03:36:29.555Z,686.00
2024-02-06T03:37:29.584Z,685.00
2024-02-06T03:38:29.555Z,687.00
2024-02-06T03:39:29.565Z,688.00
2024-02-06T03:40:29.613Z,687.00
2024-02-06T03:41:29.598Z,688.00
2024-02-06T03:42:29.621Z,688.00
2024-02-06T03:43:29.736Z,688.00
2024-02-06T03:44:29.647Z,688.00
2024-02-06T03:45:29.671Z,688.00
2024-02-06T03:46:29.730Z,688.00
2024-02-06T03:47:29.705Z,686.00
2024-02-06T03:48:29.751Z,686.00
2024-02-06T03:49:29.766Z,687.00
2024-02-06T03:50:29.743Z,689.00
2024-02-06T03:51:29.756Z,691.00
2024-02-06T03:52:29.816Z,690.00
2024-02-06T03:53:29.748Z,688.00
2024-02-06T03:54:29.793Z,687.00
2024-02-06T03:55:29.860Z,685.00
2024-02-06T03:56:29.780Z,684.00
2024-02-06T03:57:29.962Z,681.00
2024-02-06T03:58:29.835Z,679.00
2024-02-06T03:59:29.844Z,674.00
2024-02-06T04:00:29.873Z,673.00
2024-02-06T04:01:29.986Z,673.00
2024-02-06T04:02:29.859Z,673.00
2024-02-06T04:03:29.973Z,674.00
2024-02-06T04:04:29.938Z,672.00
2024-02-06T04:05:29.916Z,671.00
2024-02-06T04:06:29.933Z,670.00
2024-02-06T04:07:29.987Z,667.00
2024-02-06T04:08:29.939Z,666.00
2024-02-06T04:09:29.909Z,667.00
2024-02-06T04:10:30.093Z,667.00
2024-02-06T04:11:29.975Z,668.00
2024-02-06T04:12:29.983Z,665.00
2024-02-06T04:13:29.985Z,663.00
2024-02-06T04:14:30.063Z,665.00
2024-02-06T04:15:30.085Z,664.00
2024-02-06T04:16:30.077Z,667.00
2024-02-06T04:17:30.081Z,668.00
2024-02-06T04:18:30.099Z,667.00
2024-02-06T04:19:30.180Z,666.00
2024-02-06T04:20:30.047Z,667.00
2024-02-06T04:21:30.082Z,665.00
2024-02-06T04:22:30.169Z,667.00
2024-02-06T04:23:30.111Z,670.00
2024-02-06T04:24:30.137Z,669.00
2024-02-06T04:25:30.192Z,670.00
2024-02-06T04:26:30.167Z,669.00
2024-02-06T04:27:30.179Z,666.00
2024-02-06T04:28:30.241Z,666.00
2024-02-06T04:29:30.244Z,667.00
2024-02-06T04:30:30.225Z,668.00
2024-02-06T04:31:30.285Z,667.00
2024-02-06T04:32:37.646Z,674.00
2024-02-06T04:33:37.653Z,674.00
2024-02-06T04:34:37.548Z,671.00
2024-02-06T04:35:37.505Z,667.00
2024-02-06T04:36:37.532Z,662.00
2024-02-06T04:37:37.585Z,659.00
2024-02-06T04:38:37.512Z,658.00
2024-02-06T04:39:37.526Z,656.00
2024-02-06T04:40:37.556Z,655.00
2024-02-06T04:41:37.543Z,654.00
2024-02-06T04:42:37.525Z,656.00
2024-02-06T04:43:37.542Z,655.00
2024-02-06T04:44:37.548Z,655.00
2024-02-06T04:45:37.535Z,655.00
2024-02-06T04:46:37.559Z,658.00
2024-02-06T04:47:37.578Z,662.00
2024-02-06T04:48:37.568Z,662.00
2024-02-06T04:49:37.737Z,668.00
2024-02-06T04:50:37.508Z,668.00
2024-02-06T04:51:37.547Z,668.00
2024-02-06T04:52:41.202Z,664.00
2024-02-06T04:53:37.606Z,659.00
2024-02-06T04:54:37.571Z,657.00
2024-02-06T04:55:37.665Z,656.00
2024-02-06T04:56:37.555Z,657.00
2024-02-06T04:57:37.521Z,655.00
2024-02-06T04:58:37.638Z,654.00
2024-02-06T04:59:37.552Z,654.00
2024-02-06T05:00:37.615Z,652.00
2024-02-06T05:01:37.733Z,649.00
2024-02-06T05:02:37.558Z,648.00
2024-02-06T05:03:37.596Z,647.00
2024-02-06T05:04:37.711Z,648.00
2024-02-06T05:05:37.590Z,648.00
2024-02-06T05:06:37.648Z,648.00
2024-02-06T05:07:37.610Z,650.00
2024-02-06T05:08:37.567Z,649.00
2024-02-06T05:09:37.658Z,649.00
2024-02-06T05:10:37.689Z,652.00
2024-02-06T05:11:37.572Z,652.00
2024-02-06T05:12:37.574Z,651.00
2024-02-06T05:13:37.729Z,654.00
2024-02-06T05:14:37.608Z,654.00
2024-02-06T05:15:37.563Z,653.00
2024-02-06T05:16:37.721Z,651.00
2024-02-06T05:17:37.768Z,653.00
2024-02-06T05:18:37.718Z,654.00
2024-02-06T05:19:37.586Z,654.00
2024-02-06T05:20:37.585Z,652.00
2024-02-06T05:21:37.589Z,652.00
2024-02-06T05:22:37.635Z,654.00
2024-02-06T05:23:37.593Z,653.00
2024-02-06T05:24:37.590Z,651.00
2024-02-06T05:25:37.669Z,648.00
2024-02-06T05:26:37.604Z,649.00
2024-02-06T05:27:37.597Z,649.00
2024-02-06T05:28:37.694Z,650.00
2024-02-06T05:29:37.590Z,648.00
2024-02-06T05:30:37.614Z,650.00
2024-02-06T05:31:37.668Z,650.00
2024-02-06T05:32:37.662Z,651.00
2024-02-06T05:33:37.641Z,650.00
2024-02-06T05:34:37.752Z,652.00
2024-02-06T05:35:37.639Z,651.00
2024-02-06T05:36:37.614Z,647.00
2024-02-06T05:37:37.626Z,645.00
2024-02-06T05:38:37.623Z,645.00
2024-02-06T05:39:40.290Z,646.00
2024-02-06T05:40:37.749Z,645.00
2024-02-06T05:41:37.632Z,645.00
2024-02-06T05:42:37.628Z,644.00
2024-02-06T05:43:37.729Z,645.00
2024-02-06T05:44:37.636Z,646.00
2024-02-06T05:45:37.683Z,645.00
2024-02-06T05:46:37.661Z,646.00
2024-02-06T05:47:37.643Z,647.00
2024-02-06T05:48:40.470Z,646.00
2024-02-06T05:49:37.710Z,648.00
2024-02-06T05:50:37.795Z,646.00
2024-02-06T05:51:37.661Z,646.00
2024-02-06T05:52:37.699Z,645.00
2024-02-06T05:53:37.645Z,644.00
2024-02-06T05:54:37.642Z,644.00
2024-02-06T05:55:37.734Z,646.00
2024-02-06T05:56:37.687Z,646.00
2024-02-06T05:57:37.657Z,645.00
2024-02-06T05:58:37.836Z,644.00
2024-02-06T05:59:37.655Z,644.00
2024-02-06T06:00:37.664Z,643.00
2024-02-06T06:01:37.764Z,640.00
2024-02-06T06:02:37.681Z,639.00
2024-02-06T06:03:37.678Z,638.00
2024-02-06T06:04:37.801Z,635.00
2024-02-06T06:05:37.730Z,637.00
2024-02-06T06:06:37.709Z,638.00
2024-02-06T06:07:37.811Z,637.00
2024-02-06T06:08:37.664Z,638.00
2024-02-06T06:09:37.692Z,636.00
2024-02-06T06:10:37.699Z,638.00
2024-02-06T06:11:37.702Z,639.00
2024-02-06T06:12:37.694Z,639.00
2024-02-06T06:13:37.833Z,640.00
2024-02-06T06:14:37.668Z,641.00
2024-02-06T06:15:37.731Z,642.00
2024-02-06T06:16:37.729Z,641.00
2024-02-06T06:17:37.742Z,642.00
2024-02-06T06:18:37.743Z,640.00
2024-02-06T06:19:37.898Z,640.00
2024-02-06T06:20:37.728Z,640.00
2024-02-06T06:21:39.851Z,639.00
2024-02-06T06:22:37.831Z,639.00
2024-02-06T06:23:37.705Z,637.00
2024-02-06T06:24:37.847Z,632.00
2024-02-06T06:25:37.744Z,629.00
2024-02-06T06:26:37.704Z,627.00
2024-02-06T06:27:37.702Z,631.00
2024-02-06T06:28:38.749Z,632.00
2024-02-06T06:29:37.729Z,628.00
2024-02-06T06:30:37.721Z,627.00
2024-02-06T06:31:37.769Z,626.00
2024-02-06T06:32:37.755Z,631.00
2024-02-06T06:33:37.814Z,631.00
2024-02-06T06:34:37.802Z,632.00
2024-02-06T06:35:37.765Z,632.00
2024-02-06T06:36:37.725Z,629.00
2024-02-06T06:37:39.442Z,628.00
2024-02-06T06:38:37.724Z,630.00
2024-02-06T06:39:37.727Z,631.00
2024-02-06T06:40:37.766Z,632.00
2024-02-06T06:41:37.749Z,629.00
2024-02-06T06:42:37.750Z,630.00
2024-02-06T06:43:37.763Z,631.00
2024-02-06T06:44:37.722Z,629.00
2024-02-06T06:45:37.755Z,631.00
2024-02-06T06:46:37.805Z,634.00
2024-02-06T06:47:37.758Z,636.00
2024-02-06T06:48:37.791Z,638.00
2024-02-06T06:49:37.890Z,641.00
2024-02-06T06:50:37.854Z,667.00
2024-02-06T06:51:37.875Z,674.00
2024-02-06T06:52:37.991Z,697.00
2024-02-06T06:53:37.879Z,731.00
2024-02-06T06:54:38.977Z,754.00
2024-02-06T06:55:38.025Z,791.00
2024-02-06T06:56:37.907Z,827.00
2024-02-06T06:57:37.914Z,1046.00
2024-02-06T06:58:38.039Z,1028.00
2024-02-06T06:59:38.073Z,1041.00
2024-02-06T07:00:38.090Z,1045.00
2024-02-06T07:01:38.294Z,1077.00
2024-02-06T07:02:38.230Z,1065.00
2024-02-06T07:03:38.286Z,1068.00
2024-02-06T07:04:38.414Z,1095.00
2024-02-06T07:05:38.452Z,1158.00
2024-02-06T07:06:39.505Z,1159.00
2024-02-06T07:07:38.602Z,1159.00
2024-02-06T07:08:38.554Z,1163.00
2024-02-06T07:09:38.565Z,1177.00
2024-02-06T07:10:38.688Z,1198.00
2024-02-06T07:11:38.656Z,1210.00
2024-02-06T07:12:38.670Z,1221.00
2024-02-06T07:13:38.850Z,1230.00
2024-02-06T07:14:38.797Z,1233.00
2024-02-06T07:15:38.790Z,1249.00
2024-02-06T07:16:38.880Z,1346.00
2024-02-06T07:17:38.893Z,1417.00
2024-02-06T07:18:38.917Z,1418.00
2024-02-06T07:19:38.998Z,1424.00
2024-02-06T07:20:38.878Z,1420.00
2024-02-06T07:21:38.898Z,1385.00
2024-02-06T07:22:39.040Z,1415.00
2024-02-06T07:23:38.902Z,1427.00
2024-02-06T07:24:38.923Z,1439.00
2024-02-06T07:25:39.080Z,1430.00
2024-02-06T07:26:38.909Z,1418.00
2024-02-06T07:27:38.926Z,1422.00
2024-02-06T07:28:38.997Z,1438.00
2024-02-06T07:29:38.976Z,1531.00
2024-02-06T07:30:40.834Z,1534.00
2024-02-06T07:31:39.148Z,1543.00
2024-02-06T07:32:42.078Z,1544.00
2024-02-06T07:33:39.201Z,1556.00
2024-02-06T07:34:39.196Z,1578.00
2024-02-06T07:35:39.070Z,1602.00
2024-02-06T07:36:39.044Z,1666.00
2024-02-06T07:37:39.096Z,1667.00
2024-02-06T07:38:39.060Z,1654.00
2024-02-06T07:39:39.070Z,1667.00
2024-02-06T07:40:39.145Z,1677.00
2024-02-06T07:41:39.065Z,1678.00
2024-02-06T07:42:39.075Z,1667.00
2024-02-06T07:43:39.094Z,1673.00
2024-02-06T07:44:39.108Z,1775.00
2024-02-06T07:45:39.060Z,1828.00
2024-02-06T07:46:39.151Z,1845.00
2024-02-06T07:47:39.081Z,1878.00
2024-02-06T07:48:39.096Z,1882.00
2024-02-06T07:49:39.150Z,1883.00
2024-02-06T07:50:39.079Z,1878.00
2024-02-06T07:51:39.080Z,1872.00
2024-02-06T07:52:39.241Z,1884.00
2024-02-06T07:53:39.116Z,1942.00
2024-02-06T07:54:39.083Z,1941.00
2024-02-06T07:55:39.190Z,2045.00
2024-02-06T07:56:39.183Z,2056.00
2024-02-06T07:57:39.090Z,2060.00
2024-02-06T07:58:39.157Z,2070.00
2024-02-06T07:59:39.081Z,2091.00
2024-02-06T08:00:39.140Z,2126.00
2024-02-06T08:01:39.211Z,2127.00
2024-02-06T08:02:39.093Z,2130.00
2024-02-06T08:03:39.110Z,2143.00
2024-02-06T08:04:39.187Z,2172.00
2024-02-06T08:05:39.226Z,2195.00
2024-02-06T08:06:39.184Z,2210.00
2024-02-06T08:07:39.146Z,2229.00
2024-02-06T08:08:39.105Z,2246.00
2024-02-06T08:09:39.109Z,2265.00
2024-02-06T08:10:39.217Z,2286.00
2024-02-06T08:11:39.135Z,2319.00
2024-02-06T08:12:39.137Z,2351.00
2024-02-06T08:13:39.186Z,2365.00
2024-02-06T08:14:39.176Z,2371.00
2024-02-06T08:15:39.174Z,2375.00
2024-02-06T08:16:39.182Z,2383.00
2024-02-06T08:17:39.184Z,2396.00
2024-02-06T08:18:39.257Z,2409.00
2024-02-06T08:19:39.194Z,2418.00
2024-02-06T08:20:39.149Z,2429.00
2024-02-06T08:21:39.120Z,2442.00
2024-02-06T08:22:39.138Z,2455.00
2024-02-06T08:23:39.133Z,2464.00
2024-02-06T08:24:39.189Z,2518.00
2024-02-06T08:25:39.196Z,2550.00
2024-02-06T08:26:39.156Z,2551.00
2024-02-06T08:27:39.119Z,2535.00
2024-02-06T08:28:39.240Z,2518.00
2024-02-06T08:29:39.135Z,2532.00
2024-02-06T08:30:39.140Z,2597.00
2024-02-06T08:31:39.267Z,2605.00
2024-02-06T08:32:39.197Z,2614.00
2024-02-06T08:33:39.170Z,2628.00
2024-02-06T08:34:39.218Z,2657.00
2024-02-06T08:35:39.253Z,2674.00
2024-02-06T08:36:39.214Z,2705.00
2024-02-06T08:37:39.274Z,2713.00
2024-02-06T08:38:39.309Z,2729.00
2024-02-06T08:39:39.269Z,2739.00
2024-02-06T08:40:39.384Z,2806.00
2024-02-06T08:41:39.373Z,2773.00
2024-02-06T08:42:39.457Z,2688.00
2024-02-06T08:43:46.056Z,2542.00
2024-02-06T08:44:40.503Z,2582.00
2024-02-06T08:45:39.480Z,2597.00
2024-02-06T08:46:39.573Z,2590.00
2024-02-06T08:47:39.520Z,2587.00
2024-02-06T08:48:40.261Z,2605.00
2024-02-06T08:49:39.582Z,2623.00
2024-02-06T08:50:39.590Z,2618.00
2024-02-06T08:51:39.521Z,2607.00
2024-02-06T08:52:39.510Z,2597.00
2024-02-06T08:53:39.506Z,2584.00
2024-02-06T08:54:39.529Z,2558.00
2024-02-06T08:55:39.690Z,2535.00
2024-02-06T08:56:39.531Z,2523.00
2024-02-06T08:57:39.577Z,2518.00
2024-02-06T08:58:39.613Z,2492.00
2024-02-06T08:59:39.616Z,2464.00
2024-02-06T09:00:39.705Z,2453.00
2024-02-06T09:01:39.681Z,2444.00
2024-02-06T09:02:39.601Z,2434.00
2024-02-06T09:03:39.680Z,2422.00
2024-02-06T09:04:39.673Z,2418.00
2024-02-06T09:05:39.790Z,2412.00
2024-02-06T09:06:39.733Z,2412.00
2024-02-06T09:07:39.722Z,2403.00
2024-02-06T09:08:39.676Z,2398.00
2024-02-06T09:09:39.660Z,2386.00
2024-02-06T09:10:39.700Z,2377.00
2024-02-06T09:11:39.685Z,2365.00
2024-02-06T09:12:39.685Z,2359.00
2024-02-06T09:13:39.746Z,2347.00
2024-02-06T09:14:41.778Z,2338.00
2024-02-06T09:15:39.736Z,2334.00
2024-02-06T09:16:39.767Z,2329.00
2024-02-06T09:17:39.747Z,2317.00
2024-02-06T09:18:39.802Z,2306.00
2024-02-06T09:19:42.407Z,2299.00
2024-02-06T09:20:39.858Z,2292.00
2024-02-06T09:21:39.743Z,2294.00
2024-02-06T09:22:39.877Z,2294.00
2024-02-06T09:23:39.726Z,2294.00
2024-02-06T09:24:39.737Z,2288.00
2024-02-06T09:25:39.768Z,2284.00
2024-02-06T09:26:39.752Z,2284.00
2024-02-06T09:27:43.414Z,2275.00
2024-02-06T09:28:39.903Z,2269.00
2024-02-06T09:29:39.779Z,2254.00
2024-02-06T09:30:39.729Z,2244.00
2024-02-06T09:31:39.773Z,2242.00
2024-02-06T09:32:39.783Z,2238.00
2024-02-06T09:33:39.922Z,2233.00
2024-02-06T09:34:39.801Z,2228.00
2024-02-06T09:35:39.828Z,2221.00
2024-02-06T09:36:39.768Z,2213.00
2024-02-06T09:37:39.867Z,2210.00
2024-02-06T09:38:39.768Z,2200.00
2024-02-06T09:39:39.768Z,2196.00
2024-02-06T09:40:43.845Z,2182.00
2024-02-06T09:41:39.783Z,2168.00
2024-02-06T09:42:39.771Z,2155.00
2024-02-06T09:43:39.863Z,2152.00
2024-02-06T09:44:39.753Z,2142.00
2024-02-06T09:45:39.792Z,2128.00
2024-02-06T09:46:39.905Z,2095.00
2024-02-06T09:47:40.024Z,2086.00
2024-02-06T09:48:39.751Z,2079.00
2024-02-06T09:49:39.867Z,2084.00
2024-02-06T09:50:39.784Z,2078.00
2024-02-06T09:51:39.794Z,2072.00
2024-02-06T09:52:39.812Z,2187.00
2024-02-06T09:53:39.761Z,2088.00
2024-02-06T09:54:39.809Z,2004.00
2024-02-06T09:55:39.914Z,1799.00
2024-02-06T09:56:39.844Z,2002.00
2024-02-06T09:57:39.816Z,2026.00
2024-02-06T09:58:39.817Z,2127.00
2024-02-06T09:59:39.824Z,2106.00
2024-02-06T10:00:39.818Z,2109.00
2024-02-06T10:01:39.925Z,2174.00
2024-02-06T10:02:39.815Z,2174.00
2024-02-06T10:03:39.832Z,2175.00
2024-02-06T10:04:39.913Z,2182.00
2024-02-06T10:05:39.864Z,2196.00
2024-02-06T10:06:39.891Z,2198.00
2024-02-06T10:07:39.910Z,2217.00
2024-02-06T10:08:39.832Z,2239.00
2024-02-06T10:09:39.807Z,2250.00
2024-02-06T10:10:39.909Z,2265.00
2024-02-06T10:11:39.833Z,2280.00
2024-02-06T10:12:39.862Z,2293.00
2024-02-06T10:13:39.917Z,2300.00
2024-02-06T10:14:39.816Z,2311.00
2024-02-06T10:15:39.887Z,2316.00
2024-02-06T10:16:40.079Z,2327.00
2024-02-06T10:17:40.088Z,2347.00
2024-02-06T10:18:40.090Z,2358.00
2024-02-06T10:19:40.235Z,2366.00
2024-02-06T10:20:40.238Z,2389.00
2024-02-06T10:21:40.270Z,2401.00
2024-02-06T10:22:40.464Z,2407.00
2024-02-06T10:23:40.435Z,2419.00
2024-02-06T10:24:40.490Z,2431.00
2024-02-06T10:25:40.589Z,2438.00
2024-02-06T10:26:40.610Z,2442.00
2024-02-06T10:27:40.684Z,2448.00
2024-02-06T10:28:40.807Z,2455.00
2024-02-06T10:29:40.804Z,2463.00
2024-02-06T10:30:40.863Z,2476.00
2024-02-06T10:31:41.096Z,2485.00
2024-02-06T10:32:41.076Z,2495.00
2024-02-06T10:33:42.157Z,2512.00
2024-02-06T10:34:41.306Z,2528.00
2024-02-06T10:35:41.561Z,2544.00
2024-02-06T10:36:41.430Z,2565.00
2024-02-06T10:37:41.408Z,2580.00
2024-02-06T10:38:41.392Z,2595.00
2024-02-06T10:39:41.474Z,2610.00
2024-02-06T10:40:41.561Z,2617.00
2024-02-06T10:42:00.901Z,2565.00
2024-02-06T10:44:41.667Z,2149.00
2024-02-06T10:45:41.607Z,2097.00
2024-02-06T10:46:41.679Z,1993.00
2024-02-06T10:47:41.977Z,1823.00
2024-02-06T10:48:41.663Z,1830.00
2024-02-06T10:49:41.742Z,1833.00
2024-02-06T10:50:42.490Z,1838.00
2024-02-06T10:51:41.679Z,1843.00
2024-02-06T10:52:41.705Z,1850.00
2024-02-06T10:53:41.645Z,1862.00
2024-02-06T10:54:41.706Z,1867.00
2024-02-06T10:55:41.725Z,1888.00
2024-02-06T10:56:41.663Z,1917.00
2024-02-06T10:57:41.679Z,1947.00
2024-02-06T10:58:41.942Z,1972.00
2024-02-06T10:59:41.704Z,2003.00
2024-02-06T11:00:41.744Z,2038.00
2024-02-06T11:01:41.807Z,2056.00
2024-02-06T11:02:41.686Z,2073.00
2024-02-06T11:03:41.702Z,2201.00
2024-02-06T11:04:41.713Z,2190.00
2024-02-06T11:05:41.718Z,2181.00
2024-02-06T11:06:41.725Z,2184.00
2024-02-06T11:07:41.770Z,2187.00
2024-02-06T11:08:41.680Z,2196.00
2024-02-06T11:09:41.688Z,2206.00
2024-02-06T11:10:41.785Z,2245.00
2024-02-06T11:11:41.677Z,2277.00
2024-02-06T11:12:41.662Z,2291.00
2024-02-06T11:13:41.814Z,2314.00
2024-02-06T11:14:41.693Z,2327.00
2024-02-06T11:15:41.722Z,2337.00
2024-02-06T11:16:41.856Z,2354.00
2024-02-06T11:17:41.869Z,2375.00
2024-02-06T11:18:41.854Z,2397.00
2024-02-06T11:19:41.924Z,2439.00
2024-02-06T11:20:41.883Z,2455.00
2024-02-06T11:21:41.928Z,2470.00
2024-02-06T11:22:42.132Z,2515.00
2024-02-06T11:23:41.948Z,2612.00
2024-02-06T11:24:41.972Z,2596.00
2024-02-06T11:25:42.050Z,2603.00
2024-02-06T11:26:42.052Z,2613.00
2024-02-06T11:27:42.016Z,2621.00
2024-02-06T11:28:42.133Z,2639.00
2024-02-06T11:29:42.068Z,2654.00
2024-02-06T11:30:42.104Z,2674.00
2024-02-06T11:31:42.301Z,2748.00
2024-02-06T11:32:42.247Z,2749.00
2024-02-06T11:33:42.267Z,2748.00
2024-02-06T11:34:42.333Z,2757.00
2024-02-06T11:35:42.224Z,2835.00
2024-02-06T11:36:42.207Z,2713.00
2024-02-06T11:37:42.271Z,2727.00
2024-02-06T11:38:42.231Z,2762.00
2024-02-06T11:39:42.267Z,2705.00
2024-02-06T11:40:42.337Z,2743.00
2024-02-06T11:41:42.332Z,2696.00
2024-02-06T11:42:42.313Z,2667.00
2024-02-06T11:43:42.654Z,2670.00
2024-02-06T11:44:42.356Z,2662.00
2024-02-06T11:45:43.122Z,2652.00
2024-02-06T11:46:42.535Z,2650.00
2024-02-06T11:47:42.581Z,2649.00
2024-02-06T11:48:42.491Z,2650.00
2024-02-06T11:49:42.680Z,2644.00
2024-02-06T11:50:42.775Z,2639.00
2024-02-06T11:51:42.580Z,2634.00
2024-02-06T11:52:42.710Z,2634.00
2024-02-06T11:53:42.652Z,2634.00
2024-02-06T11:54:42.707Z,2629.00
2024-02-06T11:56:42.912Z,2621.00
2024-02-06T11:57:42.863Z,2615.00
2024-02-06T11:58:42.949Z,2608.00
2024-02-06T11:59:42.951Z,2599.00
2024-02-06T12:00:43.076Z,2591.00
2024-02-06T12:01:45.113Z,2586.00
2024-02-06T12:02:43.181Z,2578.00
2024-02-06T12:03:43.160Z,2567.00
2024-02-06T12:04:43.930Z,2551.00
2024-02-06T12:05:44.579Z,2542.00
2024-02-06T12:06:43.563Z,2527.00
2024-02-06T12:07:43.687Z,2512.00
2024-02-06T12:08:43.722Z,2499.00
2024-02-06T12:09:43.743Z,2484.00
2024-02-06T12:10:43.778Z,2471.00
2024-02-06T12:11:43.782Z,2466.00
2024-02-06T12:12:43.783Z,2459.00
2024-02-06T12:13:43.929Z,2455.00
2024-02-06T12:14:43.935Z,2452.00
2024-02-06T12:15:44.014Z,2448.00
2024-02-06T12:16:44.236Z,2440.00
2024-02-06T12:17:44.141Z,2437.00
2024-02-06T12:18:44.217Z,2431.00
2024-02-06T12:19:45.111Z,2423.00
2024-02-06T12:20:44.474Z,2418.00
2024-02-06T12:21:44.410Z,2412.00
2024-02-06T12:22:44.559Z,2401.00